createdAt,value
2019-01-26T00:01:21.493Z,6.70
2019-01-26T00:03:50.878Z,6.80
2019-01-26T00:06:20.379Z,6.80
2019-01-26T00:08:49.804Z,6.80
2019-01-26T00:11:19.238Z,6.80
2019-01-26T00:13:48.640Z,6.80
2019-01-26T00:16:21.128Z,6.90
2019-01-26T00:18:49.297Z,6.90
2019-01-26T00:21:18.775Z,7.00
2019-01-26T00:23:48.183Z,7.00
2019-01-26T00:26:17.565Z,7.10
2019-01-26T00:28:47.857Z,7.10
2019-01-26T00:31:17.431Z,7.20
2019-01-26T00:33:46.889Z,7.20
2019-01-26T00:36:16.337Z,7.20
2019-01-26T00:38:45.848Z,7.30
2019-01-26T00:41:15.384Z,7.30
2019-01-26T00:43:44.901Z,7.30
2019-01-26T00:46:14.390Z,7.40
2019-01-26T00:48:43.783Z,7.40
2019-01-26T00:51:17.101Z,7.40
2019-01-26T00:53:44.454Z,7.40
2019-01-26T00:56:13.857Z,7.50
2019-01-26T00:58:43.409Z,7.50
2019-01-26T01:01:12.889Z,7.50
2019-01-26T01:03:42.537Z,7.50
2019-01-26T01:06:12.031Z,7.60
2019-01-26T01:08:41.409Z,7.60
2019-01-26T01:11:10.902Z,7.60
2019-01-26T01:13:40.374Z,7.60
2019-01-26T01:16:09.769Z,7.60
2019-01-26T01:18:39.217Z,7.60
2019-01-26T01:21:08.681Z,7.60
2019-01-26T01:23:38.222Z,7.60
2019-01-26T01:26:07.647Z,7.60
2019-01-26T01:28:37.039Z,7.60
2019-01-26T01:31:06.473Z,7.70
2019-01-26T01:33:35.937Z,7.70
2019-01-26T01:36:05.485Z,7.70
2019-01-26T01:38:34.870Z,7.70
2019-01-26T01:41:04.352Z,7.60
2019-01-26T01:43:33.858Z,7.60
2019-01-26T01:46:03.278Z,7.60
2019-01-26T01:48:34.513Z,7.60
2019-01-26T01:51:04.000Z,7.60
2019-01-26T01:53:33.382Z,7.60
2019-01-26T01:56:02.952Z,7.70
2019-01-26T01:58:32.426Z,7.70
2019-01-26T02:01:02.038Z,7.80
2019-01-26T02:03:32.112Z,7.70
2019-01-26T02:06:01.568Z,7.70
2019-01-26T02:08:31.047Z,7.70
2019-01-26T02:11:00.537Z,7.80
2019-01-26T02:13:29.946Z,7.80
2019-01-26T02:15:59.396Z,7.80
2019-01-26T02:18:28.877Z,7.80
2019-01-26T02:20:58.390Z,7.80
2019-01-26T02:23:27.814Z,7.80
2019-01-26T02:25:57.227Z,7.80
2019-01-26T02:28:26.647Z,7.80
2019-01-26T02:30:56.184Z,7.80
2019-01-26T02:33:27.257Z,7.80
2019-01-26T02:35:56.782Z,7.80
2019-01-26T02:38:26.169Z,7.80
2019-01-26T02:40:55.654Z,7.90
2019-01-26T02:43:25.059Z,7.90
2019-01-26T02:45:54.471Z,7.90
2019-01-26T02:48:23.917Z,7.90
2019-01-26T02:50:53.389Z,7.90
2019-01-26T02:53:22.851Z,7.90
2019-01-26T02:55:52.222Z,7.90
2019-01-26T02:58:21.745Z,7.80
2019-01-26T03:00:51.174Z,7.80
2019-01-26T03:03:20.599Z,7.80
2019-01-26T03:05:50.542Z,7.80
2019-01-26T03:08:20.047Z,7.80
2019-01-26T03:10:49.451Z,7.80
2019-01-26T03:13:18.945Z,7.80
2019-01-26T03:15:48.439Z,7.70
2019-01-26T03:18:17.924Z,7.70
2019-01-26T03:20:47.407Z,7.70
2019-01-26T03:23:17.209Z,7.70
2019-01-26T03:25:46.713Z,7.70
2019-01-26T03:28:16.107Z,7.70
2019-01-26T03:30:46.497Z,7.70
2019-01-26T03:33:16.039Z,7.70
2019-01-26T03:35:45.527Z,7.70
2019-01-26T03:38:15.039Z,7.70
2019-01-26T03:40:44.453Z,7.60
2019-01-26T03:43:13.975Z,7.70
2019-01-26T03:45:43.461Z,7.60
2019-01-26T03:48:12.839Z,7.70
2019-01-26T03:50:42.305Z,7.70
2019-01-26T03:53:11.728Z,7.70
2019-01-26T03:55:41.109Z,7.70
2019-01-26T03:58:10.572Z,7.70
2019-01-26T04:00:40.046Z,7.70
2019-01-26T04:03:09.623Z,7.70
2019-01-26T04:05:39.503Z,7.70
2019-01-26T04:08:09.057Z,7.70
2019-01-26T04:10:38.658Z,7.80
2019-01-26T04:13:08.117Z,7.80
2019-01-26T04:15:38.417Z,7.80
2019-01-26T04:18:07.936Z,7.80
2019-01-26T04:20:37.926Z,7.90
2019-01-26T04:23:07.489Z,7.90
2019-01-26T04:25:38.656Z,7.90
2019-01-26T04:28:11.418Z,7.90
2019-01-26T04:30:40.837Z,7.90
2019-01-26T04:33:10.295Z,7.90
2019-01-26T04:35:39.719Z,7.90
2019-01-26T04:38:09.186Z,7.90
2019-01-26T04:40:38.696Z,7.90
2019-01-26T04:43:08.222Z,7.90
2019-01-26T04:45:37.661Z,8.00
2019-01-26T04:48:07.406Z,8.00
2019-01-26T04:50:36.961Z,8.00
2019-01-26T04:53:06.406Z,8.10
2019-01-26T04:55:35.887Z,8.10
2019-01-26T04:58:05.883Z,8.10
2019-01-26T05:00:35.278Z,8.10
2019-01-26T05:03:04.841Z,8.10
2019-01-26T05:05:34.242Z,8.10
2019-01-26T05:08:03.724Z,8.10
2019-01-26T05:10:33.159Z,8.10
2019-01-26T05:13:02.674Z,8.10
2019-01-26T05:15:32.139Z,8.10
2019-01-26T05:18:01.627Z,8.10
2019-01-26T05:20:31.114Z,8.10
2019-01-26T05:23:00.677Z,8.20
2019-01-26T05:25:30.093Z,8.20
2019-01-26T05:27:59.502Z,8.20
2019-01-26T05:30:29.257Z,8.20
2019-01-26T05:32:58.757Z,8.20
2019-01-26T05:35:28.207Z,8.20
2019-01-26T05:37:57.773Z,8.30
2019-01-26T05:40:27.238Z,8.20
2019-01-26T05:42:56.757Z,8.20
2019-01-26T05:45:26.294Z,8.20
2019-01-26T05:47:55.751Z,8.20
2019-01-26T05:50:25.832Z,8.20
2019-01-26T05:52:55.623Z,8.30
2019-01-26T05:55:25.143Z,8.20
2019-01-26T05:57:54.644Z,8.20
2019-01-26T06:00:27.540Z,8.20
2019-01-26T06:02:57.127Z,8.20
2019-01-26T06:05:26.850Z,8.20
2019-01-26T06:07:56.260Z,8.20
2019-01-26T06:10:25.700Z,8.20
2019-01-26T06:12:55.173Z,8.20
2019-01-26T06:15:24.680Z,8.20
2019-01-26T06:17:55.112Z,8.20
2019-01-26T06:20:25.003Z,8.10
2019-01-26T06:22:54.439Z,8.20
2019-01-26T06:25:23.898Z,8.20
2019-01-26T06:27:53.339Z,8.10
2019-01-26T06:30:24.370Z,8.20
2019-01-26T06:32:53.837Z,8.20
2019-01-26T06:35:23.237Z,8.10
2019-01-26T06:37:52.697Z,8.20
2019-01-26T06:40:22.210Z,8.20
2019-01-26T06:42:53.387Z,8.20
2019-01-26T06:45:23.024Z,8.20
2019-01-26T06:47:52.542Z,8.20
2019-01-26T06:50:24.595Z,8.20
2019-01-26T06:52:54.047Z,8.20
2019-01-26T06:55:23.611Z,8.30
2019-01-26T06:57:53.083Z,8.20
2019-01-26T07:00:26.421Z,8.30
2019-01-26T07:02:56.074Z,8.30
2019-01-26T07:05:29.826Z,8.30
2019-01-26T07:07:59.391Z,8.30
2019-01-26T07:10:28.863Z,8.30
2019-01-26T07:12:58.337Z,8.30
2019-01-26T07:15:27.893Z,8.30
2019-01-26T07:17:57.347Z,8.30
2019-01-26T07:20:26.769Z,8.20
2019-01-26T07:22:56.293Z,8.20
2019-01-26T07:25:25.719Z,8.20
2019-01-26T07:27:55.184Z,8.30
2019-01-26T07:30:25.865Z,8.20
2019-01-26T07:32:55.363Z,8.30
2019-01-26T07:35:24.859Z,8.30
2019-01-26T07:37:54.443Z,8.30
2019-01-26T07:40:24.999Z,8.30
2019-01-26T07:42:54.459Z,8.30
2019-01-26T07:45:24.345Z,8.30
2019-01-26T07:47:53.838Z,8.30
2019-01-26T07:50:25.717Z,8.30
2019-01-26T07:52:55.320Z,8.30
2019-01-26T07:55:24.826Z,8.30
2019-01-26T07:57:54.358Z,8.30
2019-01-26T08:00:27.796Z,8.30
2019-01-26T08:02:57.408Z,8.30
2019-01-26T08:05:27.024Z,8.30
2019-01-26T08:07:56.519Z,8.40
2019-01-26T08:10:26.762Z,8.40
2019-01-26T08:12:56.194Z,8.40
2019-01-26T08:15:28.192Z,8.40
2019-01-26T08:17:57.656Z,8.40
2019-01-26T08:20:27.209Z,8.50
2019-01-26T08:22:56.710Z,8.50
2019-01-26T08:25:26.274Z,8.50
2019-01-26T08:27:55.883Z,8.50
2019-01-26T08:30:25.542Z,8.50
2019-01-26T08:32:54.992Z,8.50
2019-01-26T08:35:24.424Z,8.50
2019-01-26T08:37:54.207Z,8.60
2019-01-26T08:40:23.827Z,8.60
2019-01-26T08:42:53.201Z,8.60
2019-01-26T08:45:22.672Z,8.70
2019-01-26T08:47:52.103Z,8.70
2019-01-26T08:50:23.349Z,8.80
2019-01-26T08:52:52.879Z,8.80
2019-01-26T08:55:22.354Z,8.80
2019-01-26T08:57:51.836Z,8.80
2019-01-26T09:00:23.947Z,8.80
2019-01-26T09:02:55.771Z,8.90
2019-01-26T09:05:42.106Z,8.90
2019-01-26T09:08:11.554Z,8.90
2019-01-26T09:10:41.051Z,9.00
2019-01-26T09:13:10.629Z,9.00
2019-01-26T09:15:40.188Z,9.00
2019-01-26T09:18:09.684Z,9.10
2019-01-26T09:20:40.894Z,9.10
2019-01-26T09:23:10.455Z,9.10
2019-01-26T09:25:39.906Z,9.10
2019-01-26T09:28:10.208Z,9.20
2019-01-26T09:30:40.046Z,9.20
2019-01-26T09:33:09.594Z,9.30
2019-01-26T09:35:39.258Z,9.30
2019-01-26T09:38:08.758Z,9.30
2019-01-26T09:40:38.392Z,9.30
2019-01-26T09:43:07.986Z,9.40
2019-01-26T09:45:37.432Z,9.40
2019-01-26T09:48:07.238Z,9.40
2019-01-26T09:50:36.863Z,9.50
2019-01-26T09:53:06.450Z,9.50
2019-01-26T09:55:35.913Z,9.60
2019-01-26T09:58:06.716Z,9.50
2019-01-26T10:00:36.261Z,9.60
2019-01-26T10:03:05.866Z,9.50
2019-01-26T10:05:35.328Z,9.50
2019-01-26T10:08:04.912Z,9.50
2019-01-26T10:10:34.374Z,9.60
2019-01-26T10:13:03.953Z,9.60
2019-01-26T10:15:33.465Z,9.60
2019-01-26T10:18:03.024Z,9.60
2019-01-26T10:20:38.512Z,9.70
2019-01-26T10:23:07.907Z,9.70
2019-01-26T10:25:37.553Z,9.70
2019-01-26T10:28:07.392Z,9.80
2019-01-26T10:30:43.989Z,9.80
2019-01-26T10:33:13.474Z,9.80
2019-01-26T10:35:53.836Z,9.80
2019-01-26T10:38:23.328Z,9.90
2019-01-26T10:40:54.416Z,9.90
2019-01-26T10:43:40.358Z,9.90
2019-01-26T10:46:09.900Z,9.90
2019-01-26T10:48:39.582Z,10.00
2019-01-26T10:51:08.974Z,10.00
2019-01-26T10:53:40.214Z,10.10
2019-01-26T10:56:09.608Z,10.10
2019-01-26T10:58:39.152Z,10.10
2019-01-26T11:01:08.602Z,10.20
2019-01-26T11:03:38.062Z,10.20
2019-01-26T11:06:07.603Z,10.20
2019-01-26T11:08:37.048Z,10.30
2019-01-26T11:11:06.553Z,10.40
2019-01-26T11:13:36.050Z,10.50
2019-01-26T11:16:05.623Z,10.50
2019-01-26T11:18:35.171Z,10.50
2019-01-26T11:21:04.705Z,10.40
2019-01-26T11:23:34.274Z,10.40
2019-01-26T11:26:03.798Z,10.40
2019-01-26T11:28:33.235Z,10.40
2019-01-26T11:31:03.848Z,10.40
2019-01-26T11:33:33.416Z,10.40
2019-01-26T11:36:02.950Z,10.50
2019-01-26T11:38:32.511Z,10.40
2019-01-26T11:41:01.952Z,10.40
2019-01-26T11:43:31.586Z,10.40
2019-01-26T11:46:08.312Z,10.40
2019-01-26T11:48:39.439Z,10.40
2019-01-26T11:51:16.889Z,10.40
2019-01-26T11:53:46.326Z,10.40
2019-01-26T11:56:20.234Z,10.50
2019-01-26T11:58:49.702Z,10.50
2019-01-26T12:01:20.884Z,10.50
2019-01-26T12:03:52.050Z,10.50
2019-01-26T12:06:23.703Z,10.50
2019-01-26T12:08:53.252Z,10.50
2019-01-26T12:11:22.656Z,10.50
2019-01-26T12:13:52.112Z,10.60
2019-01-26T12:16:26.922Z,10.60
2019-01-26T12:18:52.706Z,10.60
2019-01-26T12:21:22.090Z,10.60
2019-01-26T12:23:51.559Z,10.60
2019-01-26T12:26:21.174Z,10.60
2019-01-26T12:28:50.565Z,10.60
2019-01-26T12:31:20.024Z,10.60
2019-01-26T12:33:49.499Z,10.50
2019-01-26T12:36:20.677Z,10.50
2019-01-26T12:38:50.174Z,10.40
2019-01-26T12:41:19.681Z,10.40
2019-01-26T12:43:49.245Z,10.40
2019-01-26T12:46:18.776Z,10.40
2019-01-26T12:48:48.259Z,10.40
2019-01-26T12:51:17.742Z,10.40
2019-01-26T12:53:47.244Z,10.40
2019-01-26T12:56:16.744Z,10.40
2019-01-26T12:58:46.167Z,10.40
2019-01-26T13:01:15.652Z,10.40
2019-01-26T13:03:45.130Z,10.40
2019-01-26T13:06:14.754Z,10.30
2019-01-26T13:08:44.832Z,10.30
2019-01-26T13:11:17.386Z,10.30
2019-01-26T13:13:46.965Z,10.30
2019-01-26T13:16:16.708Z,10.30
2019-01-26T13:18:46.318Z,10.20
2019-01-26T13:21:15.752Z,10.20
2019-01-26T13:23:45.222Z,10.10
2019-01-26T13:26:14.794Z,10.10
2019-01-26T13:28:44.369Z,10.10
2019-01-26T13:31:13.974Z,10.10
2019-01-26T13:33:43.448Z,10.10
2019-01-26T13:36:12.953Z,10.10
2019-01-26T13:38:42.420Z,10.10
2019-01-26T13:41:11.898Z,10.10
2019-01-26T13:43:41.459Z,10.10
2019-01-26T13:46:11.049Z,10.10
2019-01-26T13:48:40.524Z,10.10
2019-01-26T13:51:13.092Z,10.10
2019-01-26T13:53:41.292Z,10.20
2019-01-26T13:56:10.860Z,10.20
2019-01-26T13:58:40.376Z,10.20
2019-01-26T14:01:10.006Z,10.20
2019-01-26T14:03:41.244Z,10.30
2019-01-26T14:06:11.182Z,10.40
2019-01-26T14:08:41.472Z,10.40
2019-01-26T14:11:11.020Z,10.40
2019-01-26T14:13:40.484Z,10.40
2019-01-26T14:16:10.068Z,10.40
2019-01-26T14:18:39.668Z,10.40
2019-01-26T14:21:09.176Z,10.40
2019-01-26T14:23:38.710Z,10.30
2019-01-26T14:26:08.236Z,10.30
2019-01-26T14:28:37.830Z,10.30
2019-01-26T14:31:07.370Z,10.20
2019-01-26T14:33:36.978Z,10.20
2019-01-26T14:36:06.544Z,10.10
2019-01-26T14:38:36.024Z,10.00
2019-01-26T14:41:05.882Z,10.00
2019-01-26T14:43:35.468Z,10.00
2019-01-26T14:46:05.038Z,10.00
2019-01-26T14:48:34.438Z,9.90
2019-01-26T14:51:03.852Z,9.90
2019-01-26T14:53:33.382Z,9.90
2019-01-26T14:56:02.911Z,9.90
2019-01-26T14:58:32.440Z,9.90
2019-01-26T15:01:01.938Z,9.90
2019-01-26T15:03:31.501Z,9.80
2019-01-26T15:06:00.952Z,9.80
2019-01-26T15:08:30.542Z,9.70
2019-01-26T15:10:59.952Z,9.70
2019-01-26T15:13:29.362Z,9.80
2019-01-26T15:15:58.808Z,9.70
2019-01-26T15:18:28.441Z,9.70
2019-01-26T15:20:57.853Z,9.70
2019-01-26T15:23:27.460Z,9.60
2019-01-26T15:25:56.888Z,9.50
2019-01-26T15:28:26.367Z,9.50
2019-01-26T15:30:55.807Z,9.50
2019-01-26T15:33:25.334Z,9.40
2019-01-26T15:35:54.918Z,9.40
2019-01-26T15:38:24.286Z,9.40
2019-01-26T15:40:53.687Z,9.40
2019-01-26T15:43:24.467Z,9.40
2019-01-26T15:45:54.073Z,9.40
2019-01-26T15:48:23.506Z,9.40
2019-01-26T15:50:52.933Z,9.40
2019-01-26T15:53:24.058Z,9.40
2019-01-26T15:55:53.592Z,9.40
2019-01-26T15:58:23.122Z,9.30
2019-01-26T16:00:52.630Z,9.30
2019-01-26T16:03:22.012Z,9.30
2019-01-26T16:05:51.499Z,9.30
2019-01-26T16:08:21.190Z,9.30
2019-01-26T16:10:50.684Z,9.30
2019-01-26T16:13:20.151Z,9.30
2019-01-26T16:15:49.510Z,9.20
2019-01-26T16:18:19.034Z,9.20
2019-01-26T16:20:48.635Z,9.20
2019-01-26T16:23:18.055Z,9.30
2019-01-26T16:25:47.596Z,9.20
2019-01-26T16:28:16.977Z,9.20
2019-01-26T16:30:46.381Z,9.10
2019-01-26T16:33:15.854Z,9.10
2019-01-26T16:35:45.234Z,9.10
2019-01-26T16:38:14.772Z,9.10
2019-01-26T16:40:44.161Z,9.00
2019-01-26T16:43:13.633Z,9.00
2019-01-26T16:45:43.131Z,9.00
2019-01-26T16:48:12.744Z,9.00
2019-01-26T16:50:42.276Z,9.00
2019-01-26T16:53:11.803Z,9.00
2019-01-26T16:55:41.294Z,9.00
2019-01-26T16:58:10.844Z,9.00
2019-01-26T17:00:45.571Z,9.00
2019-01-26T17:03:15.141Z,9.00
2019-01-26T17:05:44.740Z,9.00
2019-01-26T17:08:14.209Z,9.00
2019-01-26T17:10:43.626Z,8.90
2019-01-26T17:13:13.223Z,8.90
2019-01-26T17:15:42.670Z,8.90
2019-01-26T17:18:13.810Z,8.90
2019-01-26T17:20:43.541Z,8.90
2019-01-26T17:23:12.941Z,8.80
2019-01-26T17:25:42.421Z,8.80
2019-01-26T17:28:11.950Z,8.80
2019-01-26T17:30:42.653Z,8.80
2019-01-26T17:33:12.099Z,8.80
2019-01-26T17:35:41.642Z,8.80
2019-01-26T17:38:11.267Z,8.80
2019-01-26T17:40:40.805Z,8.80
2019-01-26T17:43:10.331Z,8.80
2019-01-26T17:45:39.808Z,8.70
2019-01-26T17:48:09.381Z,8.70
2019-01-26T17:50:42.313Z,8.70
2019-01-26T17:53:09.867Z,8.70
2019-01-26T17:55:39.338Z,8.70
2019-01-26T17:58:08.724Z,8.70
2019-01-26T18:00:52.087Z,8.70
2019-01-26T18:03:21.582Z,8.70
2019-01-26T18:05:51.128Z,8.70
2019-01-26T18:08:20.549Z,8.70
2019-01-26T18:10:50.221Z,8.70
2019-01-26T18:13:19.795Z,8.70
2019-01-26T18:15:49.282Z,8.70
2019-01-26T18:18:18.745Z,8.80
2019-01-26T18:20:49.778Z,8.80
2019-01-26T18:23:20.888Z,8.70
2019-01-26T18:25:50.532Z,8.70
2019-01-26T18:28:19.981Z,8.80
2019-01-26T18:30:49.417Z,8.70
2019-01-26T18:33:18.911Z,8.70
2019-01-26T18:35:48.372Z,8.70
2019-01-26T18:38:17.888Z,8.70
2019-01-26T18:40:47.349Z,8.70
2019-01-26T18:43:16.889Z,8.70
2019-01-26T18:45:46.367Z,8.80
2019-01-26T18:48:15.922Z,8.80
2019-01-26T18:50:47.767Z,8.80
2019-01-26T18:53:17.241Z,8.80
2019-01-26T18:55:46.689Z,8.80
2019-01-26T18:58:16.171Z,8.80
2019-01-26T19:00:47.623Z,8.80
2019-01-26T19:03:20.085Z,8.80
2019-01-26T19:05:49.573Z,8.80
2019-01-26T19:08:18.990Z,8.80
2019-01-26T19:10:48.428Z,8.80
2019-01-26T19:13:17.950Z,8.80
2019-01-26T19:15:47.396Z,8.80
2019-01-26T19:18:16.901Z,8.80
2019-01-26T19:20:46.389Z,8.80
2019-01-26T19:23:15.823Z,8.80
2019-01-26T19:25:45.368Z,8.70
2019-01-26T19:28:14.734Z,8.70
2019-01-26T19:30:44.378Z,8.70
2019-01-26T19:33:13.951Z,8.70
2019-01-26T19:35:43.372Z,8.70
2019-01-26T19:38:12.895Z,8.70
2019-01-26T19:40:42.307Z,8.70
2019-01-26T19:43:11.740Z,8.70
2019-01-26T19:45:41.318Z,8.70
2019-01-26T19:48:10.743Z,8.70
2019-01-26T19:50:40.207Z,8.70
2019-01-26T19:53:09.606Z,8.70
2019-01-26T19:55:39.144Z,8.70
2019-01-26T19:58:08.767Z,8.70
2019-01-26T20:00:38.250Z,8.70
2019-01-26T20:03:07.792Z,8.60
2019-01-26T20:05:37.262Z,8.60
2019-01-26T20:08:07.588Z,8.60
2019-01-26T20:10:37.214Z,8.50
2019-01-26T20:13:06.713Z,8.60
2019-01-26T20:15:36.107Z,8.50
2019-01-26T20:18:05.621Z,8.60
2019-01-26T20:20:39.374Z,8.60
2019-01-26T20:23:08.916Z,8.60
2019-01-26T20:25:38.355Z,8.60
2019-01-26T20:28:12.262Z,8.60
2019-01-26T20:30:43.510Z,8.60
2019-01-26T20:33:14.655Z,8.60
2019-01-26T20:35:44.140Z,8.60
2019-01-26T20:38:13.594Z,8.60
2019-01-26T20:40:43.097Z,8.60
2019-01-26T20:43:12.601Z,8.60
2019-01-26T20:45:42.143Z,8.60
2019-01-26T20:48:11.551Z,8.60
2019-01-26T20:50:40.979Z,8.60
2019-01-26T20:53:10.517Z,8.60
2019-01-26T20:55:39.926Z,8.60
2019-01-26T20:58:09.391Z,8.50
2019-01-26T21:00:38.855Z,8.60
2019-01-26T21:03:08.242Z,8.60
2019-01-26T21:05:38.116Z,8.60
2019-01-26T21:08:07.742Z,8.60
2019-01-26T21:10:37.345Z,8.60
2019-01-26T21:13:06.865Z,8.60
2019-01-26T21:15:36.362Z,8.70
2019-01-26T21:18:05.820Z,8.70
2019-01-26T21:20:35.290Z,8.70
2019-01-26T21:23:05.123Z,8.70
2019-01-26T21:25:34.593Z,8.70
2019-01-26T21:28:04.375Z,8.70
2019-01-26T21:30:33.784Z,8.70
2019-01-26T21:33:03.209Z,8.70
2019-01-26T21:35:32.740Z,8.80
2019-01-26T21:38:02.338Z,8.80
2019-01-26T21:40:31.848Z,8.80
2019-01-26T21:43:01.600Z,8.80
2019-01-26T21:45:31.087Z,8.80
2019-01-26T21:48:00.498Z,8.80
2019-01-26T21:50:30.916Z,8.80
2019-01-26T21:53:00.308Z,8.80
2019-01-26T21:55:29.763Z,8.80
2019-01-26T21:57:59.212Z,8.90
2019-01-26T22:00:32.616Z,8.90
2019-01-26T22:03:02.096Z,8.90
2019-01-26T22:05:31.722Z,8.90
2019-01-26T22:08:01.175Z,9.00
2019-01-26T22:10:30.656Z,9.00
2019-01-26T22:13:00.123Z,9.00
2019-01-26T22:15:29.572Z,9.00
2019-01-26T22:17:59.062Z,9.00
2019-01-26T22:20:29.107Z,9.00
2019-01-26T22:22:58.943Z,9.00
2019-01-26T22:25:28.560Z,8.90
2019-01-26T22:27:58.145Z,9.00
2019-01-26T22:30:30.587Z,9.00
2019-01-26T22:33:00.296Z,9.00
2019-01-26T22:35:30.334Z,9.00
2019-01-26T22:37:59.716Z,9.10
2019-01-26T22:40:31.228Z,9.10
2019-01-26T22:43:00.918Z,9.10
2019-01-26T22:45:30.444Z,9.00
2019-01-26T22:47:59.955Z,9.00
2019-01-26T22:50:31.166Z,9.00
2019-01-26T22:53:02.436Z,8.90
2019-01-26T22:55:31.892Z,9.00
2019-01-26T22:58:01.411Z,9.00
2019-01-26T23:00:53.214Z,9.00
2019-01-26T23:03:25.966Z,9.00
2019-01-26T23:06:32.898Z,9.00
2019-01-26T23:09:11.616Z,9.00
2019-01-26T23:11:49.790Z,8.90
2019-01-26T23:14:37.010Z,8.90
2019-01-26T23:17:09.574Z,8.90
2019-01-26T23:19:45.180Z,8.90
2019-01-26T23:22:37.984Z,8.90
2019-01-26T23:25:25.399Z,8.90
2019-01-26T23:28:09.743Z,8.90
2019-01-26T23:31:10.612Z,8.90
2019-01-26T23:33:40.223Z,8.90
2019-01-26T23:36:09.756Z,8.90
2019-01-26T23:38:40.154Z,8.80
2019-01-26T23:41:09.798Z,8.80
2019-01-26T23:43:39.174Z,8.80
2019-01-26T23:46:08.678Z,8.80
2019-01-26T23:48:38.126Z,8.80
2019-01-26T23:51:07.734Z,8.80
2019-01-26T23:53:37.184Z,8.90
2019-01-26T23:56:06.796Z,8.90
2019-01-26T23:58:36.250Z,8.90
